Time;durP1;ratioP1;P1;durP2;ratioP2;P2;SDS_P1;SDS_P2;PMS_P1;PMS_P2;Temp;Humidity;BMP_temperature;BMP_pressure;BME280_temperature;BME280_humidity;BME280_pressure;Samples;Min_cycle;Max_cycle;Signal;HPM_P1;HPM_P2
2023/06/10 00:01:47;;;;;;;16.73;14.97;;;23.10;54.80;;;;;;4902878;29;20470;-86
2023/06/10 00:04:14;;;;;;;16.20;14.53;;;23.00;54.90;;;;;;4916492;29;20501;-85
2023/06/10 00:06:41;;;;;;;17.97;15.13;;;23.00;55.30;;;;;;4931834;28;20458;-86
2023/06/10 00:09:10;;;;;;;15.07;13.63;;;23.00;55.00;;;;;;4903072;29;20458;-82
2023/06/10 00:11:38;;;;;;;13.37;12.00;;;23.00;54.70;;;;;;4944144;28;20447;-85
2023/06/10 00:14:06;;;;;;;15.77;14.17;;;22.90;53.70;;;;;;4916831;29;20455;-86
2023/06/10 00:16:33;;;;;;;15.30;13.70;;;22.80;53.70;;;;;;4916740;28;20447;-85
2023/06/10 00:19:01;;;;;;;15.03;13.60;;;22.80;54.30;;;;;;4913950;29;21115;-84
2023/06/10 00:21:28;;;;;;;15.50;13.97;;;22.80;54.20;;;;;;4908351;29;20458;-86
2023/06/10 00:23:56;;;;;;;15.73;14.10;;;22.80;54.30;;;;;;4924805;29;20841;-85
2023/06/10 00:26:24;;;;;;;15.20;13.73;;;22.70;54.40;;;;;;4918179;29;20454;-84
2023/06/10 00:28:52;;;;;;;15.20;13.80;;;22.70;54.60;;;;;;4899854;29;20993;-86
2023/06/10 00:31:19;;;;;;;15.33;13.87;;;22.60;54.90;;;;;;4921374;29;20869;-84
2023/06/10 00:33:46;;;;;;;19.67;14.57;;;22.60;55.70;;;;;;4913691;29;21032;-86
2023/06/10 00:36:13;;;;;;;15.77;13.97;;;22.50;54.70;;;;;;4897982;29;20506;-84
2023/06/10 00:38:40;;;;;;;17.13;15.00;;;22.40;54.70;;;;;;4907277;29;20478;-86
2023/06/10 00:41:07;;;;;;;14.37;12.87;;;22.40;54.60;;;;;;4908735;29;20458;-84
2023/06/10 00:43:36;;;;;;;15.00;13.43;;;22.40;54.70;;;;;;4938445;29;20514;-85
2023/06/10 00:46:03;;;;;;;16.13;14.43;;;22.30;54.70;;;;;;4914928;29;20459;-86
2023/06/10 00:48:30;;;;;;;14.90;13.50;;;22.30;54.50;;;;;;4915390;29;20493;-86
2023/06/10 00:50:58;;;;;;;15.73;14.13;;;22.30;54.90;;;;;;4914646;29;20466;-85
2023/06/10 00:53:25;;;;;;;15.23;13.67;;;22.30;54.90;;;;;;4912460;29;20466;-85
2023/06/10 00:55:53;;;;;;;16.07;13.90;;;22.30;54.70;;;;;;4899370;29;20514;-85
2023/06/10 00:58:21;;;;;;;16.20;14.47;;;22.30;55.00;;;;;;4897909;29;20477;-84
2023/06/10 01:00:49;;;;;;;16.97;15.20;;;22.30;55.20;;;;;;4917824;29;20509;-85
2023/06/10 01:03:17;;;;;;;16.43;14.43;;;22.20;55.40;;;;;;4897206;29;20538;-86
2023/06/10 01:05:44;;;;;;;18.27;15.50;;;22.20;55.50;;;;;;4920761;29;20451;-84
2023/06/10 01:08:20;;;;;;;15.97;14.27;;;22.20;55.90;;;;;;4909261;29;20483;-86
2023/06/10 01:10:54;;;;;;;19.47;15.37;;;22.10;55.60;;;;;;4908319;29;20450;-86
2023/06/10 01:13:24;;;;;;;18.40;15.13;;;22.10;55.70;;;;;;4921678;29;20442;-84
2023/06/10 01:15:53;;;;;;;16.23;14.53;;;22.10;55.80;;;;;;4908116;29;20483;-85
2023/06/10 01:18:21;;;;;;;16.40;14.73;;;22.10;56.10;;;;;;4913359;29;20479;-84
2023/06/10 01:20:49;;;;;;;17.20;15.17;;;22.10;56.20;;;;;;4914466;29;20537;-84
2023/06/10 01:23:17;;;;;;;15.73;14.10;;;22.10;56.00;;;;;;4930291;29;20532;-85
2023/06/10 01:25:50;;;;;;;17.60;13.80;;;22.10;55.50;;;;;;4908277;29;20450;-85
2023/06/10 01:28:22;;;;;;;16.13;14.53;;;22.10;55.30;;;;;;4931839;29;20501;-85
2023/06/10 01:31:00;;;;;;;17.07;15.27;;;22.00;54.90;;;;;;4939111;29;20827;-85
2023/06/10 01:33:30;;;;;;;17.60;15.10;;;22.00;55.00;;;;;;4932171;29;20462;-84
2023/06/10 01:35:59;;;;;;;16.73;14.93;;;21.90;55.00;;;;;;4908688;29;20474;-85
2023/06/10 01:38:28;;;;;;;17.10;15.30;;;21.90;55.30;;;;;;4897283;29;20478;-86
2023/06/10 01:40:57;;;;;;;16.43;14.60;;;21.80;55.30;;;;;;4935933;29;20458;-84
2023/06/10 01:43:25;;;;;;;16.77;15.00;;;21.80;55.30;;;;;;4930437;29;20482;-86
2023/06/10 01:45:51;;;;;;;15.93;14.23;;;21.70;55.00;;;;;;4926382;29;20453;-85
2023/06/10 01:48:19;;;;;;;17.90;16.00;;;21.70;54.70;;;;;;4908099;29;20482;-85
2023/06/10 01:50:46;;;;;;;17.83;16.03;;;21.60;55.70;;;;;;4920457;29;20442;-84
2023/06/10 01:53:13;;;;;;;16.80;15.10;;;21.40;56.10;;;;;;4929661;29;20563;-86
2023/06/10 01:55:41;;;;;;;18.00;14.53;;;21.40;56.30;;;;;;4917071;29;21201;-84
2023/06/10 01:58:08;;;;;;;18.13;16.27;;;21.40;55.80;;;;;;4919795;29;20466;-85
2023/06/10 02:00:35;;;;;;;17.27;15.00;;;21.40;55.90;;;;;;4922099;29;20464;-86
2023/06/10 02:03:02;;;;;;;16.60;15.00;;;21.40;56.00;;;;;;4935623;29;20952;-83
2023/06/10 02:05:29;;;;;;;19.40;13.77;;;21.30;56.30;;;;;;4917600;29;20451;-85
2023/06/10 02:07:56;;;;;;;17.30;15.40;;;21.30;56.10;;;;;;4899715;29;20477;-85
2023/06/10 02:10:23;;;;;;;16.13;14.53;;;21.40;56.10;;;;;;4926597;29;20466;-83
2023/06/10 02:12:52;;;;;;;16.23;14.53;;;21.40;55.90;;;;;;4934472;28;20455;-84
2023/06/10 02:15:19;;;;;;;17.30;13.93;;;21.50;55.70;;;;;;4923111;29;20475;-86
2023/06/10 02:17:48;;;;;;;16.87;15.07;;;21.50;55.60;;;;;;4926432;29;20482;-85
2023/06/10 02:20:16;;;;;;;17.57;15.17;;;21.50;55.80;;;;;;4923046;29;20545;-85
2023/06/10 02:22:43;;;;;;;14.80;13.23;;;21.40;55.90;;;;;;4901187;29;20455;-83
2023/06/10 02:25:10;;;;;;;17.67;14.53;;;21.30;56.20;;;;;;4920138;29;20458;-84
2023/06/10 02:27:37;;;;;;;19.83;15.27;;;21.30;56.40;;;;;;4908541;29;20486;-85
2023/06/10 02:30:09;;;;;;;17.90;13.70;;;21.30;56.40;;;;;;4927411;29;20442;-84
2023/06/10 02:32:36;;;;;;;16.33;14.50;;;21.30;56.40;;;;;;4925011;29;20462;-85
2023/06/10 02:35:04;;;;;;;15.80;14.30;;;21.30;56.30;;;;;;4920559;29;20475;-85
2023/06/10 02:37:32;;;;;;;19.13;14.13;;;21.30;56.30;;;;;;4918015;29;21152;-85
2023/06/10 02:39:59;;;;;;;15.43;13.50;;;21.30;56.10;;;;;;4917986;29;20469;-84
2023/06/10 02:42:27;;;;;;;15.93;14.30;;;21.20;55.80;;;;;;4931081;29;20506;-84
2023/06/10 02:44:54;;;;;;;16.37;14.60;;;21.20;55.90;;;;;;4925217;29;20506;-85
2023/06/10 02:47:43;;;;;;;16.30;14.20;;;21.20;56.00;;;;;;4924518;29;20473;-85
2023/06/10 02:50:12;;;;;;;20.60;14.77;;;21.10;56.20;;;;;;4903535;29;20451;-85
2023/06/10 02:52:59;;;;;;;17.33;15.40;;;21.10;56.30;;;;;;4931383;29;20458;-86
2023/06/10 02:55:27;;;;;;;20.70;14.73;;;21.10;56.40;;;;;;4931534;29;20481;-85
2023/06/10 02:57:59;;;;;;;17.80;15.57;;;21.10;56.60;;;;;;4903784;29;20563;-86
2023/06/10 03:00:26;;;;;;;17.23;15.10;;;21.10;56.70;;;;;;4939464;29;20457;-85
2023/06/10 03:02:57;;;;;;;17.17;15.37;;;21.10;56.60;;;;;;4907551;29;20463;-85
2023/06/10 03:05:26;;;;;;;18.40;14.50;;;21.00;56.40;;;;;;4916219;29;20458;-85
2023/06/10 03:07:55;;;;;;;16.20;14.40;;;21.10;56.50;;;;;;4920409;29;21063;-86
2023/06/10 03:10:24;;;;;;;16.47;14.77;;;21.00;56.70;;;;;;4923698;29;20503;-85
2023/06/10 03:12:51;;;;;;;17.10;15.40;;;21.00;56.30;;;;;;4904983;29;20863;-85
2023/06/10 03:15:20;;;;;;;15.97;14.00;;;20.90;56.10;;;;;;4936395;29;20488;-86
2023/06/10 03:17:47;;;;;;;18.87;14.43;;;20.90;55.90;;;;;;4923686;29;20475;-86
2023/06/10 03:20:16;;;;;;;17.37;14.90;;;20.90;55.40;;;;;;4924594;29;20463;-85
2023/06/10 03:22:44;;;;;;;17.23;14.77;;;20.80;55.60;;;;;;4932551;28;20467;-84
2023/06/10 03:25:13;;;;;;;18.20;15.80;;;20.70;55.60;;;;;;4936188;29;20462;-85
2023/06/10 03:27:43;;;;;;;18.67;15.70;;;20.70;56.00;;;;;;4908922;29;20589;-83
2023/06/10 03:30:11;;;;;;;19.60;15.70;;;20.70;56.00;;;;;;4920683;29;20458;-85
2023/06/10 03:32:40;;;;;;;17.50;15.57;;;20.70;56.10;;;;;;4933833;29;22543;-83
2023/06/10 03:35:09;;;;;;;18.70;15.97;;;20.60;56.00;;;;;;4924544;29;20467;-86
2023/06/10 03:37:38;;;;;;;22.03;16.37;;;20.60;56.40;;;;;;4918059;29;20488;-85
2023/06/10 03:40:08;;;;;;;19.20;15.00;;;20.60;56.30;;;;;;4921608;29;20454;-84
2023/06/10 03:42:36;;;;;;;17.80;14.50;;;20.60;56.40;;;;;;4914219;29;20888;-85
2023/06/10 03:45:04;;;;;;;17.60;15.77;;;20.60;56.40;;;;;;4924050;29;20474;-84
2023/06/10 03:47:35;;;;;;;17.60;15.70;;;20.60;56.50;;;;;;4915974;29;21079;-85
2023/06/10 03:50:04;;;;;;;19.10;15.33;;;20.60;56.40;;;;;;4933458;29;20512;-86
2023/06/10 03:52:31;;;;;;;18.17;14.87;;;20.50;56.40;;;;;;4908115;29;20466;-85
2023/06/10 03:55:00;;;;;;;19.43;16.10;;;20.50;56.50;;;;;;4925293;29;20458;-85
2023/06/10 03:57:28;;;;;;;19.50;14.97;;;20.50;56.70;;;;;;4908673;29;20501;-85
2023/06/10 03:59:56;;;;;;;18.87;15.20;;;20.60;56.60;;;;;;4907789;29;20459;-86
2023/06/10 04:02:23;;;;;;;14.97;13.53;;;20.60;56.70;;;;;;4906802;29;20541;-83
2023/06/10 04:04:51;;;;;;;17.50;15.20;;;20.60;57.00;;;;;;4924812;29;20455;-85
2023/06/10 04:07:20;;;;;;;16.93;15.20;;;20.60;56.50;;;;;;4923615;29;20839;-85
2023/06/10 04:09:48;;;;;;;16.23;14.53;;;20.60;57.20;;;;;;4908616;29;20456;-85
2023/06/10 04:12:16;;;;;;;18.17;15.03;;;20.60;57.20;;;;;;4906557;29;20542;-81
2023/06/10 04:14:43;;;;;;;17.60;15.70;;;20.50;57.30;;;;;;4940724;29;20517;-86
2023/06/10 04:17:12;;;;;;;15.90;14.30;;;20.50;57.30;;;;;;4923538;29;20573;-85
2023/06/10 04:19:39;;;;;;;16.90;14.27;;;20.60;57.50;;;;;;4896514;29;20463;-85
2023/06/10 04:22:07;;;;;;;17.23;15.40;;;20.60;57.30;;;;;;4909227;29;20447;-85
2023/06/10 04:24:34;;;;;;;17.43;14.70;;;20.70;57.30;;;;;;4918011;29;20463;-84
2023/06/10 04:27:02;;;;;;;15.57;13.77;;;20.60;58.10;;;;;;4919908;29;20463;-84
2023/06/10 04:29:30;;;;;;;17.80;14.77;;;20.60;57.70;;;;;;4922827;29;20469;-85
2023/06/10 04:31:57;;;;;;;18.53;15.90;;;20.70;57.60;;;;;;4909038;29;20450;-83
2023/06/10 04:34:25;;;;;;;27.67;17.50;;;20.70;58.00;;;;;;4918269;29;20458;-84
2023/06/10 04:36:53;;;;;;;22.33;17.43;;;20.70;59.10;;;;;;4921467;28;20534;-86
2023/06/10 04:39:21;;;;;;;19.10;16.53;;;20.70;59.30;;;;;;4912898;29;20952;-84
2023/06/10 04:41:48;;;;;;;26.73;18.33;;;20.80;59.40;;;;;;4918521;29;20458;-85
2023/06/10 04:44:15;;;;;;;23.00;16.30;;;20.80;59.50;;;;;;4905865;29;20488;-84
2023/06/10 04:46:44;;;;;;;18.50;16.53;;;20.90;59.40;;;;;;4930682;29;20519;-85
2023/06/10 04:49:11;;;;;;;20.30;15.87;;;20.80;59.70;;;;;;4917690;29;20462;-85
2023/06/10 04:51:38;;;;;;;21.97;17.00;;;20.60;59.80;;;;;;4915308;29;20457;-85
2023/06/10 04:54:05;;;;;;;20.50;17.43;;;20.50;60.30;;;;;;4925747;29;20465;-85
2023/06/10 04:56:32;;;;;;;19.33;16.73;;;20.20;60.90;;;;;;4915056;29;20469;-84
2023/06/10 04:58:59;;;;;;;19.20;17.03;;;20.30;61.20;;;;;;4930999;29;20481;-85
2023/06/10 05:01:27;;;;;;;21.70;17.20;;;20.50;60.50;;;;;;4916067;29;20458;-85
2023/06/10 05:03:56;;;;;;;19.13;17.00;;;20.60;60.00;;;;;;4922718;29;20486;-84
2023/06/10 05:06:23;;;;;;;20.80;16.67;;;20.20;60.80;;;;;;4936329;29;20973;-84
2023/06/10 05:08:49;;;;;;;18.17;15.80;;;20.30;61.20;;;;;;4920809;29;20508;-86
2023/06/10 05:11:16;;;;;;;21.40;16.50;;;20.40;60.90;;;;;;4936490;29;20454;-85
2023/06/10 05:13:44;;;;;;;18.37;16.47;;;20.60;61.60;;;;;;4943402;29;20459;-85
2023/06/10 05:16:11;;;;;;;21.43;16.97;;;20.70;60.60;;;;;;4935065;29;20495;-85
2023/06/10 05:18:37;;;;;;;24.43;17.83;;;20.70;60.20;;;;;;4921486;29;20564;-85
2023/06/10 05:21:06;;;;;;;21.60;17.43;;;20.80;60.00;;;;;;4919028;29;20458;-86
2023/06/10 05:23:33;;;;;;;22.20;16.37;;;20.80;60.20;;;;;;4934054;29;20462;-86
2023/06/10 05:26:00;;;;;;;20.23;18.03;;;20.80;60.20;;;;;;4941721;29;20486;-85
2023/06/10 05:28:27;;;;;;;17.70;15.90;;;21.00;60.20;;;;;;4925749;29;20489;-85
2023/06/10 05:30:54;;;;;;;20.30;16.30;;;21.20;60.10;;;;;;4934419;29;20446;-85
2023/06/10 05:33:21;;;;;;;19.70;16.23;;;21.20;59.80;;;;;;4925830;29;20450;-86
2023/06/10 05:35:47;;;;;;;21.57;16.97;;;21.20;60.00;;;;;;4925834;29;20820;-84
2023/06/10 05:38:16;;;;;;;17.70;15.50;;;21.30;59.80;;;;;;4904969;29;20475;-84
2023/06/10 05:40:43;;;;;;;17.17;15.40;;;21.20;59.80;;;;;;4918582;29;20536;-85
2023/06/10 05:43:11;;;;;;;18.40;15.03;;;21.20;59.90;;;;;;4921718;29;20454;-84
2023/06/10 05:45:40;;;;;;;18.37;15.53;;;21.40;60.10;;;;;;4925205;29;20461;-84
2023/06/10 05:48:07;;;;;;;16.93;15.20;;;21.00;59.90;;;;;;4933989;28;20480;-85
2023/06/10 05:50:38;;;;;;;19.70;15.70;;;21.20;60.50;;;;;;4906918;29;20459;-80
2023/06/10 05:53:06;;;;;;;22.40;15.50;;;21.20;60.30;;;;;;4920674;29;20553;-85
2023/06/10 05:55:35;;;;;;;17.70;15.73;;;21.30;60.60;;;;;;4902635;29;20528;-85
2023/06/10 05:58:02;;;;;;;18.23;14.67;;;21.40;60.90;;;;;;4935428;29;20505;-83
2023/06/10 06:00:30;;;;;;;19.57;14.13;;;21.50;59.80;;;;;;4907458;29;20461;-86
2023/06/10 06:02:58;;;;;;;17.73;14.53;;;21.60;58.60;;;;;;4928731;29;20541;-83
2023/06/10 06:05:25;;;;;;;16.80;13.93;;;21.60;58.80;;;;;;4908312;29;20450;-84
2023/06/10 06:07:52;;;;;;;15.77;14.17;;;21.70;59.00;;;;;;4932097;29;20601;-85
2023/06/10 06:10:19;;;;;;;17.47;15.60;;;21.80;59.10;;;;;;4919281;29;20487;-85
2023/06/10 06:12:48;;;;;;;16.77;14.90;;;22.20;59.30;;;;;;4931801;28;20813;-85
2023/06/10 06:15:15;;;;;;;21.87;13.90;;;22.60;58.70;;;;;;4916599;29;20466;-85
2023/06/10 06:17:41;;;;;;;14.20;12.33;;;22.70;56.60;;;;;;4931408;29;20482;-85
2023/06/10 06:20:09;;;;;;;14.87;12.90;;;23.00;57.10;;;;;;4931639;29;20475;-85
2023/06/10 06:22:36;;;;;;;14.60;13.00;;;23.20;55.60;;;;;;4933001;29;20457;-85
2023/06/10 06:25:03;;;;;;;16.47;13.40;;;23.10;54.40;;;;;;4927354;29;20458;-86
2023/06/10 06:27:30;;;;;;;14.10;12.60;;;23.30;55.50;;;;;;4931878;28;20475;-86
2023/06/10 06:29:58;;;;;;;12.30;11.10;;;23.50;55.80;;;;;;4922348;29;21224;-85
2023/06/10 06:32:27;;;;;;;13.60;12.13;;;23.70;54.20;;;;;;4947344;28;21106;-85
2023/06/10 06:34:54;;;;;;;14.07;11.47;;;23.90;54.90;;;;;;4931197;29;20500;-84
2023/06/10 06:37:22;;;;;;;12.93;11.17;;;23.90;52.80;;;;;;4907271;29;20602;-81
2023/06/10 06:39:53;;;;;;;11.97;10.80;;;24.00;53.90;;;;;;4916418;29;20654;-85
2023/06/10 06:42:19;;;;;;;12.87;11.60;;;23.80;52.90;;;;;;4918858;29;20461;-86
2023/06/10 06:45:14;;;;;;;13.50;10.63;;;23.90;53.30;;;;;;4917267;29;21058;-85
2023/06/10 06:47:41;;;;;;;13.60;11.70;;;24.30;54.50;;;;;;4924739;29;21411;-85
2023/06/10 06:50:09;;;;;;;13.97;12.00;;;24.30;53.70;;;;;;4922587;29;20976;-84
2023/06/10 06:52:36;;;;;;;13.20;11.80;;;24.50;54.10;;;;;;4920637;29;20538;-86
2023/06/10 06:55:03;;;;;;;13.23;11.80;;;24.40;52.80;;;;;;4917054;29;21002;-85
2023/06/10 06:57:30;;;;;;;12.23;10.93;;;24.50;54.00;;;;;;4902324;29;20474;-85
2023/06/10 06:59:57;;;;;;;12.70;11.10;;;24.50;53.00;;;;;;4934307;29;20458;-85
2023/06/10 07:02:25;;;;;;;11.13;10.03;;;24.80;53.90;;;;;;4932047;29;20974;-85
2023/06/10 07:04:55;;;;;;;15.27;11.00;;;25.10;53.10;;;;;;4922842;29;20455;-85
2023/06/10 07:07:22;;;;;;;11.77;10.57;;;25.20;52.20;;;;;;4932300;29;20557;-82
2023/06/10 07:09:49;;;;;;;11.23;10.13;;;25.30;52.30;;;;;;4934118;29;20458;-86
2023/06/10 07:12:16;;;;;;;10.97;9.67;;;25.40;52.40;;;;;;4929508;29;20463;-85
2023/06/10 07:14:43;;;;;;;13.53;9.90;;;25.30;50.70;;;;;;4908022;29;20457;-86
2023/06/10 07:17:10;;;;;;;13.30;10.17;;;25.40;50.60;;;;;;4925856;29;20474;-87
2023/06/10 07:19:38;;;;;;;11.50;9.33;;;25.40;49.90;;;;;;4915412;29;20457;-85
2023/06/10 07:22:05;;;;;;;10.60;9.30;;;25.50;50.20;;;;;;4932200;29;20541;-83
2023/06/10 07:24:32;;;;;;;9.80;8.80;;;25.60;49.60;;;;;;4917166;29;20917;-86
2023/06/10 07:26:59;;;;;;;10.50;9.40;;;25.60;46.70;;;;;;4920183;29;20467;-84
2023/06/10 07:29:26;;;;;;;9.47;8.50;;;25.40;45.90;;;;;;4932585;29;20453;-85
2023/06/10 07:31:54;;;;;;;10.83;9.00;;;25.50;46.30;;;;;;4921621;29;20451;-87
2023/06/10 07:34:21;;;;;;;10.60;9.43;;;25.50;46.70;;;;;;4934121;29;20530;-87
2023/06/10 07:36:49;;;;;;;9.80;8.80;;;25.60;47.70;;;;;;4910855;28;20481;-84
2023/06/10 07:39:16;;;;;;;8.57;7.77;;;25.80;46.00;;;;;;4900294;28;20450;-86
2023/06/10 07:41:43;;;;;;;10.80;9.70;;;26.10;45.90;;;;;;4913278;29;21238;-87
2023/06/10 07:44:09;;;;;;;12.07;9.60;;;26.20;46.30;;;;;;4904782;29;20450;-86
2023/06/10 07:46:36;;;;;;;9.77;8.77;;;26.20;45.90;;;;;;4904250;28;20459;-86
2023/06/10 07:49:03;;;;;;;9.10;8.30;;;26.40;46.40;;;;;;4929789;29;20450;-86
2023/06/10 07:51:30;;;;;;;10.70;9.60;;;26.40;45.00;;;;;;4927395;29;20600;-86
2023/06/10 07:53:58;;;;;;;9.43;8.60;;;26.40;45.30;;;;;;4930092;29;20477;-86
2023/06/10 07:56:26;;;;;;;9.77;8.87;;;26.50;45.70;;;;;;4918873;29;20483;-86
2023/06/10 07:58:53;;;;;;;9.77;8.97;;;26.70;45.90;;;;;;4920897;29;20469;-85
2023/06/10 08:01:20;;;;;;;9.70;8.70;;;26.80;45.30;;;;;;4917823;29;20451;-86
2023/06/10 08:03:47;;;;;;;11.50;8.50;;;27.00;45.50;;;;;;4922784;29;20451;-86
2023/06/10 08:06:14;;;;;;;10.47;9.57;;;27.20;43.80;;;;;;4913312;29;20522;-85
2023/06/10 08:08:42;;;;;;;11.67;9.27;;;27.10;45.40;;;;;;4902293;29;20933;-86
2023/06/10 08:11:12;;;;;;;8.83;8.10;;;27.10;44.60;;;;;;4920638;29;20591;-86
2023/06/10 08:13:39;;;;;;;9.47;8.57;;;27.20;45.10;;;;;;4926518;29;20465;-85
2023/06/10 08:16:07;;;;;;;11.30;9.70;;;27.30;44.10;;;;;;4929014;29;20485;-85
2023/06/10 08:18:34;;;;;;;9.73;8.87;;;27.40;44.70;;;;;;4899280;29;20533;-84
2023/06/10 08:21:01;;;;;;;10.27;8.30;;;27.50;44.00;;;;;;4928830;28;20454;-85
2023/06/10 08:23:28;;;;;;;10.10;8.97;;;27.50;43.70;;;;;;4909917;29;21238;-85
2023/06/10 08:25:55;;;;;;;11.00;9.20;;;27.40;43.40;;;;;;4930105;29;20454;-85
2023/06/10 08:28:23;;;;;;;9.33;8.53;;;27.50;44.10;;;;;;4919929;29;21034;-83
2023/06/10 08:30:50;;;;;;;9.00;8.20;;;27.70;44.10;;;;;;4928979;29;21199;-86
2023/06/10 08:33:17;;;;;;;9.03;8.00;;;28.00;43.90;;;;;;4913255;29;20459;-83
2023/06/10 08:35:44;;;;;;;10.43;9.07;;;28.30;44.20;;;;;;4915548;29;20548;-85
2023/06/10 08:38:11;;;;;;;9.40;8.50;;;28.60;43.60;;;;;;4929821;28;21172;-85
2023/06/10 08:40:38;;;;;;;8.20;7.40;;;28.70;41.50;;;;;;4915716;29;20506;-84
2023/06/10 08:43:08;;;;;;;7.13;6.43;;;28.60;42.10;;;;;;4917878;29;21037;-85
2023/06/10 08:45:38;;;;;;;8.60;7.70;;;28.70;41.40;;;;;;4908938;29;20454;-85
2023/06/10 08:48:07;;;;;;;11.13;7.40;;;29.00;43.40;;;;;;4933586;28;20478;-85
2023/06/10 08:50:37;;;;;;;7.07;6.47;;;29.30;41.60;;;;;;4908690;29;21470;-86
2023/06/10 08:53:07;;;;;;;7.10;6.40;;;29.50;40.90;;;;;;4927302;29;20472;-85
2023/06/10 08:55:36;;;;;;;7.70;6.93;;;29.50;39.50;;;;;;4924543;29;20462;-86
2023/06/10 08:58:03;;;;;;;6.33;5.83;;;29.60;39.60;;;;;;4922515;29;20481;-85
2023/06/10 09:00:32;;;;;;;7.40;6.73;;;29.80;39.60;;;;;;4923701;29;20550;-87
2023/06/10 09:03:01;;;;;;;8.50;7.20;;;29.60;37.60;;;;;;4915676;29;20454;-85
2023/06/10 09:05:29;;;;;;;6.60;6.00;;;29.60;38.90;;;;;;4932350;28;20982;-86
2023/06/10 09:07:58;;;;;;;7.50;6.80;;;29.60;39.80;;;;;;4907754;29;20507;-86
2023/06/10 09:10:25;;;;;;;7.03;6.40;;;29.70;40.00;;;;;;4917059;29;20505;-86
2023/06/10 09:12:52;;;;;;;6.67;5.80;;;30.00;39.40;;;;;;4923673;29;20441;-87
2023/06/10 09:15:19;;;;;;;7.00;6.30;;;30.30;38.00;;;;;;4931300;29;20470;-87
2023/06/10 09:17:47;;;;;;;7.70;6.43;;;30.50;38.10;;;;;;4908203;29;20505;-86
2023/06/10 09:20:15;;;;;;;7.90;6.70;;;30.50;37.90;;;;;;4930721;29;20458;-87
2023/06/10 09:22:43;;;;;;;7.63;6.60;;;30.70;37.60;;;;;;4921508;29;21322;-86
2023/06/10 09:25:11;;;;;;;8.10;6.70;;;30.90;37.90;;;;;;4916707;29;20936;-85
2023/06/10 09:27:49;;;;;;;7.23;6.03;;;30.70;36.80;;;;;;4925204;29;20465;-87
2023/06/10 09:30:27;;;;;;;6.63;6.07;;;30.60;36.90;;;;;;4927047;29;20449;-85
2023/06/10 09:32:55;;;;;;;8.60;6.60;;;30.60;36.00;;;;;;4928200;29;20776;-88
2023/06/10 09:35:24;;;;;;;6.37;5.77;;;30.40;37.20;;;;;;4926118;29;20494;-85
2023/06/10 09:37:53;;;;;;;8.03;6.17;;;30.50;37.20;;;;;;4911868;29;20478;-87
2023/06/10 09:40:20;;;;;;;6.27;5.70;;;30.80;36.50;;;;;;4928250;29;21011;-87
2023/06/10 09:42:53;;;;;;;6.03;5.43;;;31.00;37.20;;;;;;4928024;29;20814;-85
2023/06/10 09:45:20;;;;;;;6.47;5.77;;;31.10;36.90;;;;;;4921410;29;20451;-86
2023/06/10 09:47:47;;;;;;;6.40;5.80;;;31.50;36.20;;;;;;4918853;29;20467;-85
2023/06/10 09:50:14;;;;;;;6.23;5.30;;;31.60;34.60;;;;;;4924782;29;20453;-87
2023/06/10 09:52:42;;;;;;;5.57;5.07;;;31.70;34.80;;;;;;4926217;29;20478;-87
2023/06/10 09:55:10;;;;;;;6.20;5.60;;;31.70;35.90;;;;;;4936424;29;20562;-85
2023/06/10 09:57:38;;;;;;;5.60;5.20;;;31.80;35.90;;;;;;4917133;29;20501;-86
2023/06/10 10:00:07;;;;;;;6.23;5.03;;;31.60;35.90;;;;;;4923577;29;20473;-87
2023/06/10 10:02:47;;;;;;;4.97;4.57;;;31.80;35.40;;;;;;4924987;29;20493;-87
2023/06/10 10:05:15;;;;;;;7.00;5.70;;;32.10;35.30;;;;;;4907922;29;20533;-86
2023/06/10 10:07:43;;;;;;;5.67;5.23;;;32.50;32.50;;;;;;4923055;29;20497;-86
2023/06/10 10:10:11;;;;;;;5.87;5.33;;;32.60;34.10;;;;;;4937217;29;20802;-86
2023/06/10 10:12:40;;;;;;;6.57;5.10;;;32.80;34.00;;;;;;4921686;29;20458;-88
2023/06/10 10:15:08;;;;;;;5.07;4.67;;;32.70;32.70;;;;;;4910538;29;20466;-87
2023/06/10 10:17:38;;;;;;;5.33;4.83;;;32.60;32.60;;;;;;4921031;29;20534;-86
2023/06/10 10:20:07;;;;;;;5.07;4.60;;;32.60;32.40;;;;;;4926194;29;20957;-86
2023/06/10 10:22:39;;;;;;;6.43;4.43;;;32.60;31.30;;;;;;4926284;29;20450;-85
2023/06/10 10:25:12;;;;;;;8.13;4.77;;;32.30;32.90;;;;;;4942431;29;20465;-87
2023/06/10 10:27:45;;;;;;;8.17;5.17;;;32.60;33.10;;;;;;4911176;29;20511;-88
2023/06/10 10:30:14;;;;;;;9.57;5.30;;;32.80;33.10;;;;;;4926429;29;20461;-86
2023/06/10 10:32:52;;;;;;;5.70;3.77;;;32.90;32.00;;;;;;4910066;29;20458;-87
2023/06/10 10:35:23;;;;;;;4.90;4.50;;;32.90;31.80;;;;;;4925537;29;20451;-87
2023/06/10 10:37:51;;;;;;;4.17;3.77;;;32.80;30.80;;;;;;4920220;29;20918;-85
2023/06/10 10:40:21;;;;;;;4.97;4.57;;;32.80;31.20;;;;;;4935736;29;20478;-87
2023/06/10 10:42:49;;;;;;;4.60;4.20;;;32.80;30.60;;;;;;4923863;29;20462;-88
2023/06/10 10:45:16;;;;;;;5.40;4.33;;;32.90;31.10;;;;;;4906676;29;20533;-87
2023/06/10 10:47:45;;;;;;;4.37;4.00;;;33.30;32.00;;;;;;4924746;29;20470;-86
2023/06/10 10:50:17;;;;;;;7.73;4.53;;;33.40;30.40;;;;;;4927211;29;20462;-86
2023/06/10 10:52:55;;;;;;;6.77;4.40;;;33.60;32.00;;;;;;4910193;29;20462;-86
2023/06/10 10:55:24;;;;;;;4.27;3.97;;;33.90;30.70;;;;;;4902211;29;20537;-87
2023/06/10 10:57:56;;;;;;;5.60;4.70;;;33.90;29.90;;;;;;4927765;29;20485;-88
2023/06/10 11:00:28;;;;;;;4.73;4.33;;;33.90;30.10;;;;;;4923032;29;20454;-88
2023/06/10 11:02:59;;;;;;;5.17;4.50;;;34.10;29.70;;;;;;4935434;28;20967;-88
2023/06/10 11:05:36;;;;;;;4.63;4.23;;;33.80;30.10;;;;;;4924309;29;20467;-87
2023/06/10 11:08:03;;;;;;;5.23;4.40;;;33.60;30.00;;;;;;4912312;29;21019;-87
2023/06/10 11:10:33;;;;;;;4.93;4.43;;;33.60;29.70;;;;;;4925555;29;20795;-88
2023/06/10 11:13:00;;;;;;;5.17;4.63;;;33.80;29.40;;;;;;4903078;29;20521;-87
2023/06/10 11:15:29;;;;;;;4.60;4.10;;;34.00;29.80;;;;;;4922560;29;20466;-88
2023/06/10 11:18:12;;;;;;;6.40;4.53;;;33.70;29.60;;;;;;4926941;29;20562;-85
2023/06/10 11:20:52;;;;;;;5.20;4.70;;;33.60;30.00;;;;;;4904657;29;20545;-86
2023/06/10 11:23:40;;;;;;;4.70;4.30;;;33.60;29.80;;;;;;4919626;29;21032;-85
2023/06/10 11:26:34;;;;;;;5.00;4.60;;;33.70;29.70;;;;;;4941431;29;20454;-87
2023/06/10 11:29:11;;;;;;;5.47;4.93;;;33.60;29.70;;;;;;4913734;29;20466;-85
2023/06/10 11:31:47;;;;;;;4.10;3.80;;;33.50;30.00;;;;;;4921738;29;20892;-86
2023/06/10 11:34:23;;;;;;;5.03;4.63;;;33.70;29.20;;;;;;4926015;29;20510;-87
2023/06/10 11:36:50;;;;;;;7.33;5.00;;;33.70;28.60;;;;;;4918330;29;20848;-86
2023/06/10 11:39:19;;;;;;;4.63;4.23;;;33.90;29.50;;;;;;4922356;29;20478;-86
2023/06/10 11:41:49;;;;;;;6.37;5.70;;;33.60;28.20;;;;;;4908212;29;20455;-87
2023/06/10 11:44:16;;;;;;;5.10;4.70;;;33.60;30.00;;;;;;4917774;29;20836;-87
2023/06/10 11:46:43;;;;;;;4.90;4.40;;;33.80;28.60;;;;;;4908578;29;20457;-86
2023/06/10 11:49:10;;;;;;;7.60;4.80;;;33.90;28.30;;;;;;4928904;29;20857;-86
2023/06/10 11:51:39;;;;;;;6.13;4.60;;;34.10;28.80;;;;;;4912543;29;20455;-87
2023/06/10 11:54:06;;;;;;;6.40;4.03;;;34.50;28.20;;;;;;4926488;29;20950;-86
2023/06/10 11:56:33;;;;;;;5.10;4.70;;;34.60;27.80;;;;;;4932522;29;20453;-86
2023/06/10 11:59:05;;;;;;;4.97;4.63;;;34.60;28.30;;;;;;4931751;29;20489;-85
2023/06/10 12:01:33;;;;;;;6.07;4.50;;;34.40;29.20;;;;;;4920274;29;20474;-87
2023/06/10 12:04:02;;;;;;;7.67;5.20;;;34.60;29.00;;;;;;4931698;29;20436;-86
2023/06/10 12:06:39;;;;;;;5.20;4.70;;;34.70;28.50;;;;;;4907864;29;20463;-88
2023/06/10 12:09:06;;;;;;;4.43;4.13;;;34.70;27.60;;;;;;4910954;29;20457;-86
2023/06/10 12:11:33;;;;;;;8.97;5.30;;;34.90;28.20;;;;;;4924416;29;20458;-86
2023/06/10 12:14:03;;;;;;;5.03;4.63;;;35.10;28.90;;;;;;4909787;29;20479;-86
2023/06/10 12:16:30;;;;;;;4.63;4.33;;;35.20;28.20;;;;;;4924708;29;20474;-85
2023/06/10 12:19:03;;;;;;;5.33;4.93;;;35.30;27.40;;;;;;4907633;29;20466;-87
2023/06/10 12:21:31;;;;;;;5.97;5.47;;;35.30;27.40;;;;;;4922109;29;20443;-87
2023/06/10 12:24:06;;;;;;;6.33;5.20;;;35.10;28.80;;;;;;4916881;29;20443;-87
2023/06/10 12:26:39;;;;;;;5.00;4.60;;;34.90;28.60;;;;;;4931398;29;20455;-86
2023/06/10 12:29:25;;;;;;;4.73;4.40;;;34.90;28.10;;;;;;4925010;29;20454;-86
2023/06/10 12:32:12;;;;;;;7.03;5.00;;;34.90;28.70;;;;;;4940037;29;20805;-86
2023/06/10 12:34:40;;;;;;;17.47;4.80;;;34.50;28.40;;;;;;4917973;29;20553;-87
2023/06/10 12:37:13;;;;;;;4.90;4.50;;;34.30;29.00;;;;;;4905567;29;20473;-85
2023/06/10 12:39:41;;;;;;;5.20;4.80;;;34.10;29.90;;;;;;4907713;29;21009;-86
2023/06/10 12:42:10;;;;;;;5.93;5.43;;;33.90;29.90;;;;;;4925929;29;20683;-88
2023/06/10 12:44:41;;;;;;;5.23;4.83;;;33.80;29.60;;;;;;4919136;29;20447;-87